Mobile, AL

1:50 PM CDT on August 30, 2014 (GMT -0500)
Fairhope | Change Station
CLOSE
Current Station
Airport
Location: Fairhope,
Elevation: 92 ft
Nearby Weather Stations

Elev 92 ft 30.46 °N, 87.88 °W | Updated 15 minutes ago

Mostly Cloudy
Mostly Cloudy
90 °F
Feels Like 100 °F
N
20
Wind Variable Wind from SSE
Gusts 24 mph

Today
High -- | Low -- °F
--% Chance of Precip.
Yesterday
High -- | Low -- °F
Precip. -- in
6:27 AM 7:17 PM
Waxing Crescent, 24% visible
Pressure 30.06 in
Visibility 10.0 miles
Clouds Mostly Cloudy 2900 ft
Mostly Cloudy 3400 ft
Heat Index 100 °F
Dew Point 75 °F
Humidity 62%
Rainfall 0.00 in
Snow Depth Not available.
UV 6 out of 12
Pollen 8.60 out of 12
Ozone Good
Flu Activity Not available.
METAR KCQF 301835Z AUTO 16017G21KT 10SM BKN029 BKN034 32/24 A3006 RMK AO2

More Conditions Fewer Conditions

Pressure 30.06 in
Visibility 10.0 miles
Clouds Mostly Cloudy 2900 ft
Mostly Cloudy 3400 ft
Heat Index 100 °F
Dew Point 75 °F
Humidity 62%
Rainfall 0.00 in
Snow Depth Not available.
UV 6 out of 12
Pollen 8.60 out of 12
Ozone Good
Flu Activity Not available.
METAR KCQF 301835Z AUTO 16017G21KT 10SM BKN029 BKN034 32/24 A3006 RMK AO2

More Conditions Fewer Conditions

10-Day Weather Forecast

Almanac

Astronomy

Aug. 30, 2014 Rise Set
Actual Time 6:27 AM CDT 7:17 PM CDT
Civil Twilight 6:02 AM CDT 7:42 PM CDT
Nautical Twilight 5:33 AM CDT 8:11 PM CDT
Astronomical Twilight 5:04 AM CDT 8:40 PM CDT
Moon 10:53 AM CDT 10:14 PM CDT
Length of Visible Light 13h 39m
Length of Day
12h 50m
Tomorrow will be 1m 46s shorter.
Waxing Crescent, 24% of the Moon is Illuminated
Today
Waxing Crescent
Sep 2
First Quarter
Sep 8
Full
Sep 15
Last Quarter
Sep 24
New

Today's Extremes

State Highs State Lows

Community

WunderPhotos

Upload Photos

1,748,593 photos uploaded!

WunderBlogs® & News

Nearby

Air Quality

  Air Quality AQ Index Pollutant
Yesterday Good
OZONE
Current Good
OZONE
Saturday Good
OZONE
Sunday Good
OZONE
Monday Good
OZONE
Tuesday Good
OZONE

Snow Depth

Station Depth Elevation
No new snow has been reported.

Earthquake Activity

City Distance Mag. Time & Date
No recent earthquake activity has been reported nearby.
Minimum magnitude displayed is 2.5.

Coastal Water Temperatures

Place Temperature
Mobile State Docks, AL 86.0 °F
Coast Guard Sector Mobile, AL 84.9 °F

Nearby Weather Stations